createdAt,value
2023-02-02T00:00:59.405Z,98864.00
2023-02-02T00:06:09.373Z,98859.80
2023-02-02T00:11:13.412Z,98856.80
2023-02-02T00:16:29.197Z,98850.40
2023-02-02T00:21:33.024Z,98849.40
2023-02-02T00:26:37.544Z,98848.80
2023-02-02T00:31:40.835Z,98848.40
2023-02-02T00:36:45.745Z,98850.60
2023-02-02T00:41:49.046Z,98844.80
2023-02-02T00:46:52.140Z,98837.40
2023-02-02T00:51:55.278Z,98837.80
2023-02-02T00:56:58.361Z,98836.40
2023-02-02T01:02:02.404Z,98842.40
2023-02-02T01:07:06.613Z,98844.80
2023-02-02T01:12:09.737Z,98843.80
2023-02-02T01:17:14.852Z,98845.80
2023-02-02T01:22:17.978Z,98845.00
2023-02-02T01:27:21.186Z,98847.00
2023-02-02T01:32:24.306Z,98841.40
2023-02-02T01:37:28.017Z,98845.20
2023-02-02T01:42:31.220Z,98839.20
2023-02-02T01:47:43.136Z,98839.80
2023-02-02T01:52:49.831Z,98843.40
2023-02-02T01:58:00.928Z,98842.00
2023-02-02T02:03:12.029Z,98842.40
2023-02-02T02:08:47.507Z,98837.40
2023-02-02T02:14:13.650Z,98833.80
2023-02-02T02:20:07.009Z,98833.20
2023-02-02T02:26:05.413Z,98833.20
2023-02-02T02:31:21.878Z,98831.00
2023-02-02T02:36:52.998Z,98828.00
2023-02-02T02:42:03.015Z,98826.00
2023-02-02T02:47:06.484Z,98821.60
2023-02-02T02:52:10.104Z,98827.20
2023-02-02T02:57:42.075Z,98824.20
2023-02-02T03:03:26.568Z,98823.00
2023-02-02T03:08:32.764Z,98820.00
2023-02-02T03:13:36.361Z,98821.40
2023-02-02T03:18:40.175Z,98821.80
2023-02-02T03:23:43.393Z,98820.00
2023-02-02T03:28:46.801Z,98824.60
2023-02-02T03:33:49.899Z,98820.80
2023-02-02T03:38:53.021Z,98825.40
2023-02-02T03:43:56.121Z,98826.40
2023-02-02T03:48:59.321Z,98822.00
2023-02-02T03:54:02.534Z,98818.40
2023-02-02T03:59:05.843Z,98821.60
2023-02-02T04:04:08.956Z,98828.80
2023-02-02T04:09:12.062Z,98831.00
2023-02-02T04:14:15.265Z,98822.80
2023-02-02T04:19:18.476Z,98824.40
2023-02-02T04:24:21.923Z,98832.00
2023-02-02T04:29:26.633Z,98838.80
2023-02-02T04:34:29.876Z,98829.20
2023-02-02T04:39:33.057Z,98838.40
2023-02-02T04:44:36.154Z,98843.60
2023-02-02T04:49:39.690Z,98839.80
2023-02-02T04:54:42.887Z,98838.00
2023-02-02T04:59:46.195Z,98846.80
2023-02-02T05:04:49.462Z,98845.20
2023-02-02T05:09:52.623Z,98844.40
2023-02-02T05:14:55.925Z,98845.00
2023-02-02T05:19:59.362Z,98846.40
2023-02-02T05:25:02.755Z,98851.20
2023-02-02T05:30:07.289Z,98852.00
2023-02-02T05:35:11.738Z,98866.80
2023-02-02T05:40:14.833Z,98866.40
2023-02-02T05:45:20.912Z,98868.80
2023-02-02T05:50:24.041Z,98864.60
2023-02-02T05:55:27.322Z,98862.00
2023-02-02T06:00:30.532Z,98875.00
2023-02-02T06:05:33.985Z,98884.20
2023-02-02T06:10:41.613Z,98893.40
2023-02-02T06:15:44.749Z,98891.80
2023-02-02T06:20:47.984Z,98897.40
2023-02-02T06:25:51.599Z,98910.80
2023-02-02T06:30:54.739Z,98912.60
2023-02-02T06:36:03.926Z,98912.00
2023-02-02T06:41:07.570Z,98922.00
2023-02-02T06:46:10.791Z,98925.60
2023-02-02T06:51:14.196Z,98927.20
2023-02-02T06:56:20.247Z,98939.00
2023-02-02T07:01:23.512Z,98937.20
2023-02-02T07:06:29.178Z,98949.40
2023-02-02T07:11:37.564Z,98954.80
2023-02-02T07:16:43.955Z,98964.20
2023-02-02T07:21:47.192Z,98972.40
2023-02-02T07:26:50.447Z,98976.20
2023-02-02T07:31:53.604Z,98982.40
2023-02-02T07:36:58.294Z,98989.80
2023-02-02T07:42:01.438Z,98998.20
2023-02-02T07:47:05.465Z,99006.00
2023-02-02T07:52:08.609Z,99007.40
2023-02-02T07:57:13.925Z,99011.00
2023-02-02T08:02:17.551Z,99016.60
2023-02-02T08:07:24.860Z,99021.80
2023-02-02T08:12:28.617Z,99031.40
2023-02-02T08:17:31.674Z,99041.80
2023-02-02T08:22:34.783Z,99042.80
2023-02-02T08:27:38.048Z,99051.40
2023-02-02T08:32:41.340Z,99065.80
2023-02-02T08:37:44.408Z,99076.80
2023-02-02T08:42:51.339Z,99078.00
2023-02-02T08:48:10.406Z,99085.80
2023-02-02T08:53:14.825Z,99101.60
2023-02-02T08:58:18.034Z,99112.20
2023-02-02T09:03:21.959Z,99120.60
2023-02-02T09:08:25.129Z,99124.20
2023-02-02T09:13:28.389Z,99136.00
2023-02-02T09:18:32.629Z,99148.00
2023-02-02T09:23:39.062Z,99165.20
2023-02-02T09:28:47.276Z,99174.20
2023-02-02T09:33:51.140Z,99193.80
2023-02-02T09:38:54.276Z,99219.00
2023-02-02T09:44:33.187Z,99218.80
2023-02-02T09:50:16.957Z,99239.20
2023-02-02T09:55:41.455Z,99251.40
2023-02-02T10:01:00.640Z,99256.40
2023-02-02T10:06:47.370Z,99260.00
2023-02-02T10:11:56.419Z,99271.00
2023-02-02T10:17:52.389Z,99279.00
2023-02-02T10:23:03.990Z,99294.80
2023-02-02T10:28:33.086Z,99292.60
2023-02-02T10:33:39.797Z,99307.40
2023-02-02T10:39:23.122Z,99308.20
2023-02-02T10:44:47.425Z,99323.40
2023-02-02T10:50:08.044Z,99341.00
2023-02-02T10:55:28.968Z,99342.20
2023-02-02T11:00:56.082Z,99361.40
2023-02-02T11:06:21.451Z,99369.20
2023-02-02T11:11:42.591Z,99377.60
2023-02-02T11:17:01.264Z,99381.80
2023-02-02T11:22:06.018Z,99384.20
2023-02-02T11:27:14.459Z,99395.60
2023-02-02T11:32:30.876Z,99397.00
2023-02-02T11:38:09.290Z,99410.80
2023-02-02T11:43:28.699Z,99426.60
2023-02-02T11:48:39.298Z,99448.80
2023-02-02T11:53:48.626Z,99451.40
2023-02-02T11:58:59.886Z,99461.20
2023-02-02T12:04:26.341Z,99476.00
2023-02-02T12:09:29.679Z,99487.00
2023-02-02T12:15:03.713Z,99496.60
2023-02-02T12:20:37.751Z,99509.00
2023-02-02T12:25:55.802Z,99509.80
2023-02-02T12:31:40.845Z,99514.80
2023-02-02T12:37:14.120Z,99521.60
2023-02-02T12:42:47.213Z,99538.80
2023-02-02T12:48:25.552Z,99542.20
2023-02-02T12:54:34.998Z,99550.80
2023-02-02T12:59:42.644Z,99556.60
2023-02-02T13:05:48.392Z,99556.40
2023-02-02T13:11:28.872Z,99557.40
2023-02-02T13:16:37.283Z,99570.40
2023-02-02T13:21:43.736Z,99582.20
2023-02-02T13:26:52.589Z,99611.60
2023-02-02T13:32:05.804Z,99631.00
2023-02-02T13:37:24.021Z,99646.00
2023-02-02T13:43:07.182Z,99654.60
2023-02-02T13:48:32.008Z,99671.00
2023-02-02T13:54:49.450Z,99679.80
2023-02-02T14:00:31.471Z,99700.80
2023-02-02T14:05:40.622Z,99718.60
2023-02-02T14:10:53.578Z,99723.00
2023-02-02T14:16:05.935Z,99720.80
2023-02-02T14:21:09.592Z,99735.40
2023-02-02T14:26:41.587Z,99748.80
2023-02-02T14:31:57.467Z,99760.40
2023-02-02T14:37:28.544Z,99769.20
2023-02-02T14:43:22.140Z,99787.00
2023-02-02T14:48:26.889Z,99803.40
2023-02-02T14:53:35.612Z,99815.80
2023-02-02T14:58:44.067Z,99829.80
2023-02-02T15:04:17.574Z,99847.60
2023-02-02T15:09:20.915Z,99862.00
2023-02-02T15:14:32.933Z,99869.60
2023-02-02T15:19:44.062Z,99888.00
2023-02-02T15:24:48.794Z,99906.80
2023-02-02T15:30:07.729Z,99926.20
2023-02-02T15:35:23.880Z,99939.00
2023-02-02T15:40:33.344Z,99949.80
2023-02-02T15:45:43.812Z,99960.80
2023-02-02T15:50:51.339Z,99972.80
2023-02-02T15:55:57.595Z,99987.80
2023-02-02T16:01:19.109Z,100004.60
2023-02-02T16:06:22.827Z,100028.60
2023-02-02T16:11:26.114Z,100035.80
2023-02-02T16:16:32.687Z,100053.60
2023-02-02T16:21:46.763Z,100075.00
2023-02-02T16:26:54.436Z,100075.20
2023-02-02T16:31:58.602Z,100092.40
2023-02-02T16:37:12.479Z,100112.20
2023-02-02T16:42:31.920Z,100132.80
2023-02-02T16:47:38.979Z,100132.40
2023-02-02T16:52:52.829Z,100155.20
2023-02-02T16:57:57.261Z,100176.20
2023-02-02T17:03:10.328Z,100184.80
2023-02-02T17:08:15.144Z,100181.80
2023-02-02T17:13:35.045Z,100201.20
2023-02-02T17:18:38.472Z,100209.40
2023-02-02T17:23:42.854Z,100221.00
2023-02-02T17:28:46.846Z,100232.80
2023-02-02T17:33:50.025Z,100241.60
2023-02-02T17:38:53.243Z,100251.00
2023-02-02T17:43:56.443Z,100262.00
2023-02-02T17:48:59.652Z,100272.40
2023-02-02T17:54:02.856Z,100273.60
2023-02-02T17:59:06.370Z,100279.00
2023-02-02T18:04:12.778Z,100291.20
2023-02-02T18:09:16.171Z,100290.60
2023-02-02T18:14:19.380Z,100302.40
2023-02-02T18:19:22.688Z,100315.40
2023-02-02T18:24:25.898Z,100330.80
2023-02-02T18:29:29.465Z,100336.40
2023-02-02T18:34:34.651Z,100350.60
2023-02-02T18:39:37.781Z,100364.40
2023-02-02T18:44:41.400Z,100379.40
2023-02-02T18:49:44.713Z,100381.60
2023-02-02T18:54:49.036Z,100389.00
2023-02-02T18:59:54.814Z,100404.20
2023-02-02T19:05:16.573Z,100419.00
2023-02-02T19:10:22.865Z,100416.60
2023-02-02T19:15:28.888Z,100421.40
2023-02-02T19:20:32.834Z,100438.00
2023-02-02T19:25:36.481Z,100451.20
2023-02-02T19:30:45.152Z,100453.40
2023-02-02T19:35:52.580Z,100459.80
2023-02-02T19:40:56.245Z,100465.00
2023-02-02T19:46:00.640Z,100466.40
2023-02-02T19:51:34.407Z,100475.60
2023-02-02T19:56:40.325Z,100477.80
2023-02-02T20:01:48.022Z,100482.40
2023-02-02T20:06:59.149Z,100487.80
2023-02-02T20:12:26.952Z,100499.40
2023-02-02T20:17:34.667Z,100494.80
2023-02-02T20:22:38.892Z,100496.20
2023-02-02T20:27:41.996Z,100505.40
2023-02-02T20:32:45.415Z,100507.60
2023-02-02T20:37:49.534Z,100521.40
2023-02-02T20:42:53.051Z,100525.40
2023-02-02T20:47:56.163Z,100516.60
2023-02-02T20:53:00.302Z,100536.80
2023-02-02T20:58:04.915Z,100539.00
2023-02-02T21:03:08.147Z,100538.20
2023-02-02T21:08:11.665Z,100539.40
2023-02-02T21:13:14.867Z,100548.60
2023-02-02T21:18:18.006Z,100555.40
2023-02-02T21:23:22.027Z,100568.40
2023-02-02T21:28:25.413Z,100570.20
2023-02-02T21:33:28.623Z,100582.00
2023-02-02T21:38:31.839Z,100579.80
2023-02-02T21:43:35.250Z,100597.40
2023-02-02T21:48:39.889Z,100587.00
2023-02-02T21:53:43.093Z,100596.40
2023-02-02T21:58:47.743Z,100609.40
2023-02-02T22:03:51.354Z,100620.80
2023-02-02T22:09:13.118Z,100638.80
2023-02-02T22:14:35.666Z,100643.20
2023-02-02T22:19:39.716Z,100645.80
2023-02-02T22:24:45.899Z,100652.20
2023-02-02T22:29:52.253Z,100659.20
2023-02-02T22:34:55.457Z,100673.40
2023-02-02T22:40:00.592Z,100681.80
2023-02-02T22:45:04.468Z,100693.00
2023-02-02T22:50:08.501Z,100689.60
2023-02-02T22:55:12.706Z,100689.60
2023-02-02T23:00:29.207Z,100693.60
2023-02-02T23:05:32.549Z,100688.40
2023-02-02T23:10:36.359Z,100694.80
2023-02-02T23:15:39.623Z,100690.60
2023-02-02T23:20:42.830Z,100690.60
2023-02-02T23:25:46.002Z,100689.60
2023-02-02T23:30:49.712Z,100702.40
2023-02-02T23:35:52.905Z,100709.80
2023-02-02T23:40:56.339Z,100701.80
2023-02-02T23:46:00.460Z,100697.00
2023-02-02T23:51:04.035Z,100695.00
2023-02-02T23:56:07.656Z,100707.80
